Time;durP1;ratioP1;P1;durP2;ratioP2;P2;SDS_P1;SDS_P2;PMS_P1;PMS_P2;Temp;Humidity;BMP_temperature;BMP_pressure;BME280_temperature;BME280_humidity;BME280_pressure;Samples;Min_cycle;Max_cycle;Signal;HPM_P1;HPM_P2
2023/09/17 00:02:21;;;;;;;5.68;3.65;;;;;;;24.89;48.98;100551.19;5112195;28;20080;-64
2023/09/17 00:04:50;;;;;;;5.70;3.63;;;;;;;24.87;48.84;100547.81;5112384;28;20146;-65
2023/09/17 00:07:20;;;;;;;5.07;3.40;;;;;;;24.86;49.05;100546.13;5112378;28;20674;-64
2023/09/17 00:09:48;;;;;;;4.55;3.30;;;;;;;24.85;48.72;100544.41;5112274;28;20052;-65
2023/09/17 00:12:17;;;;;;;4.85;3.35;;;;;;;24.84;48.97;100549.03;5111875;28;20221;-64
2023/09/17 00:14:45;;;;;;;5.07;3.55;;;;;;;24.85;49.01;100549.88;5112114;28;20557;-64
2023/09/17 00:17:14;;;;;;;4.93;3.22;;;;;;;24.84;48.76;100543.56;5112172;28;20059;-64
2023/09/17 00:19:43;;;;;;;4.85;3.33;;;;;;;24.83;49.05;100535.56;5112846;28;20142;-64
2023/09/17 00:22:14;;;;;;;5.07;3.42;;;;;;;24.82;48.86;100539.31;5116282;28;20048;-64
2023/09/17 00:24:44;;;;;;;5.38;3.60;;;;;;;24.81;48.86;100537.63;5116155;28;20492;-64
2023/09/17 00:27:13;;;;;;;4.50;3.47;;;;;;;24.81;48.87;100527.56;5116583;28;20051;-64
2023/09/17 00:29:41;;;;;;;4.95;3.50;;;;;;;24.80;48.81;100535.91;5116451;28;20062;-64
2023/09/17 00:32:10;;;;;;;4.53;3.35;;;;;;;24.80;49.01;100525.88;5116121;28;20055;-64
2023/09/17 00:34:38;;;;;;;5.00;3.40;;;;;;;24.80;49.01;100530.44;5116191;28;20043;-64
2023/09/17 00:37:07;;;;;;;5.18;3.35;;;;;;;24.78;49.01;100535.22;5116069;28;20052;-65
2023/09/17 00:39:36;;;;;;;5.68;3.65;;;;;;;24.78;49.09;100537.97;5116119;28;20079;-64
2023/09/17 00:42:06;;;;;;;5.32;3.50;;;;;;;24.77;49.08;100531.66;5116059;28;20131;-64
2023/09/17 00:44:35;;;;;;;5.32;3.08;;;;;;;24.76;48.99;100534.56;5115853;28;20124;-64
2023/09/17 00:47:04;;;;;;;4.85;3.17;;;;;;;24.76;49.06;100531.84;5116012;28;20139;-64
2023/09/17 00:49:34;;;;;;;5.78;3.42;;;;;;;24.73;48.91;100527.59;5115878;28;20050;-64
2023/09/17 00:52:05;;;;;;;4.10;2.97;;;;;;;24.74;49.13;100526.56;5116003;28;20058;-64
2023/09/17 00:54:34;;;;;;;4.63;3.28;;;;;;;24.73;48.97;100518.56;5115676;28;20062;-64
2023/09/17 00:57:03;;;;;;;4.18;3.03;;;;;;;24.73;48.97;100518.56;5098009;28;20047;-64
2023/09/17 00:59:33;;;;;;;4.93;3.20;;;;;;;24.72;49.00;100516.88;5115829;28;20059;-64
2023/09/17 01:02:03;;;;;;;4.30;3.13;;;;;;;24.71;49.16;100521.47;5115643;28;20092;-64
2023/09/17 01:04:32;;;;;;;4.78;3.40;;;;;;;24.71;48.99;100510.56;5115569;28;20089;-64
2023/09/17 01:07:01;;;;;;;4.20;2.80;;;;;;;24.70;49.13;100507.97;5115449;28;20079;-64
2023/09/17 01:09:30;;;;;;;4.22;2.90;;;;;;;24.69;48.96;100504.41;5115489;28;20549;-64
2023/09/17 01:12:03;;;;;;;6.95;3.38;;;;;;;24.69;48.84;100518.06;5115253;28;20051;-64
2023/09/17 01:14:34;;;;;;;5.22;3.20;;;;;;;24.69;49.10;100518.06;5115327;28;20142;-64
2023/09/17 01:17:03;;;;;;;5.40;3.53;;;;;;;24.65;49.04;100513.13;5115207;28;20071;-64
2023/09/17 01:19:32;;;;;;;4.35;3.13;;;;;;;24.66;49.19;100515.69;5115299;28;20488;-64
2023/09/17 01:22:06;;;;;;;5.30;3.58;;;;;;;24.66;49.11;100514.84;5115149;28;20040;-64
2023/09/17 01:24:41;;;;;;;5.18;3.50;;;;;;;24.66;49.24;100517.56;5115255;28;20047;-65
2023/09/17 01:27:13;;;;;;;4.82;3.15;;;;;;;24.65;49.19;100515.88;5115287;28;20043;-64
2023/09/17 01:29:44;;;;;;;5.15;3.50;;;;;;;24.64;49.18;100515.03;5115134;28;20044;-65
2023/09/17 01:32:12;;;;;;;6.75;3.20;;;;;;;24.62;49.06;100521.69;5114398;28;20052;-66
2023/09/17 01:34:43;;;;;;;4.03;3.00;;;;;;;24.63;49.18;100518.78;5115119;28;20039;-66
2023/09/17 01:37:17;;;;;;;5.25;2.92;;;;;;;24.62;49.07;100517.09;5115101;28;20043;-65
2023/09/17 01:39:52;;;;;;;4.50;3.15;;;;;;;24.61;49.14;100503.59;5114895;28;20229;-66
2023/09/17 01:42:23;;;;;;;4.35;3.40;;;;;;;24.60;49.25;100507.34;5114853;28;20459;-65
2023/09/17 01:44:52;;;;;;;4.32;3.17;;;;;;;24.60;49.26;100507.34;5114920;28;20071;-64
2023/09/17 01:47:22;;;;;;;4.75;3.00;;;;;;;24.59;49.13;100511.09;5115064;28;20484;-63
2023/09/17 01:49:51;;;;;;;4.50;3.10;;;;;;;24.59;49.07;100511.97;5114774;28;20565;-65
2023/09/17 01:52:24;;;;;;;4.07;2.88;;;;;;;24.58;49.23;100512.13;5114855;28;20151;-64
2023/09/17 01:54:53;;;;;;;4.40;2.97;;;;;;;24.57;49.37;100505.00;5114954;28;20043;-64
2023/09/17 01:57:23;;;;;;;4.40;2.97;;;;;;;24.56;49.28;100504.13;5114798;28;20473;-65
2023/09/17 01:59:51;;;;;;;4.78;3.10;;;;;;;24.55;49.08;100513.34;5114563;28;20061;-64
2023/09/17 02:02:21;;;;;;;4.97;3.10;;;;;;;24.55;49.35;100511.47;5096728;28;20043;-64
2023/09/17 02:04:50;;;;;;;3.88;2.83;;;;;;;24.53;49.30;100510.81;5114320;28;20054;-64
2023/09/17 02:07:22;;;;;;;4.40;2.92;;;;;;;24.52;49.34;100503.66;5114364;28;20088;-64
2023/09/17 02:09:50;;;;;;;5.05;2.90;;;;;;;24.52;49.19;100511.84;5114649;28;20369;-64
2023/09/17 02:12:18;;;;;;;3.85;2.92;;;;;;;24.52;49.20;100506.38;5114035;28;20419;-65
2023/09/17 02:14:48;;;;;;;4.55;3.00;;;;;;;24.51;49.05;100510.13;5114314;28;20413;-65
2023/09/17 02:17:17;;;;;;;4.72;3.22;;;;;;;24.49;49.25;100504.00;5114218;28;20077;-64
2023/09/17 02:19:46;;;;;;;3.95;2.97;;;;;;;24.50;49.09;100502.94;5114058;28;20048;-65
2023/09/17 02:22:15;;;;;;;4.70;3.33;;;;;;;24.50;49.42;100504.84;5114531;28;20078;-64
2023/09/17 02:24:45;;;;;;;4.63;3.03;;;;;;;24.49;49.29;100506.72;5114435;28;20059;-65
2023/09/17 02:27:15;;;;;;;4.65;2.95;;;;;;;24.48;49.00;100505.00;5113598;28;20055;-65
2023/09/17 02:29:43;;;;;;;4.32;2.90;;;;;;;24.48;49.28;100498.72;5114011;28;20044;-65
2023/09/17 02:32:15;;;;;;;4.38;3.22;;;;;;;24.47;49.06;100495.13;5113867;28;20131;-64
2023/09/17 02:34:44;;;;;;;4.10;2.73;;;;;;;24.46;49.11;100501.63;5114152;28;20048;-64
2023/09/17 02:37:12;;;;;;;5.55;3.08;;;;;;;24.46;49.44;100498.91;5113998;28;20268;-64
2023/09/17 02:39:41;;;;;;;4.53;2.92;;;;;;;24.44;49.10;100498.22;5113724;28;20055;-66
2023/09/17 02:42:09;;;;;;;4.75;3.17;;;;;;;24.43;49.32;100501.97;5113670;28;20130;-64
2023/09/17 02:44:38;;;;;;;4.45;2.90;;;;;;;24.45;49.35;100501.81;5113516;28;20108;-65
2023/09/17 02:47:07;;;;;;;4.22;3.10;;;;;;;24.44;49.23;100500.09;5113598;28;20389;-65
2023/09/17 02:49:37;;;;;;;5.13;2.90;;;;;;;24.41;49.26;100498.56;5113633;28;20047;-65
2023/09/17 02:52:06;;;;;;;4.97;3.10;;;;;;;24.42;49.30;100489.38;5113609;28;20054;-65
2023/09/17 02:54:35;;;;;;;4.00;2.90;;;;;;;24.41;49.39;100498.56;5113488;28;20165;-64
2023/09/17 02:57:07;;;;;;;5.65;3.17;;;;;;;24.38;49.44;100487.16;5113427;28;20058;-64
2023/09/17 02:59:35;;;;;;;4.17;2.97;;;;;;;24.39;49.13;100489.72;5113195;28;20043;-64
2023/09/17 03:02:04;;;;;;;5.63;3.13;;;;;;;24.38;49.50;100493.47;5113107;28;20402;-64
2023/09/17 03:04:33;;;;;;;4.53;3.13;;;;;;;24.38;49.54;100493.47;5113409;28;20130;-64
2023/09/17 03:07:05;;;;;;;4.15;3.05;;;;;;;24.36;49.38;100487.34;5113179;28;20472;-66
2023/09/17 03:09:34;;;;;;;3.92;3.03;;;;;;;24.37;49.44;100491.78;5113220;28;20099;-65
2023/09/17 03:12:02;;;;;;;4.30;2.78;;;;;;;24.35;49.31;100488.38;5112829;28;20047;-65
2023/09/17 03:14:30;;;;;;;4.43;2.92;;;;;;;24.35;49.43;100490.25;5113043;28;20043;-66
2023/09/17 03:17:00;;;;;;;4.70;3.20;;;;;;;24.34;49.48;100494.84;5113157;28;20052;-65
2023/09/17 03:19:32;;;;;;;3.85;2.75;;;;;;;24.33;49.38;100495.88;5095080;28;20047;-65
2023/09/17 03:22:02;;;;;;;4.35;3.08;;;;;;;24.33;49.47;100498.63;5112962;28;20078;-65
2023/09/17 03:24:33;;;;;;;5.10;3.47;;;;;;;24.31;49.33;100497.91;5112704;28;20468;-64
2023/09/17 03:27:01;;;;;;;4.85;3.00;;;;;;;24.32;49.51;100493.31;5113006;28;20066;-65
2023/09/17 03:29:29;;;;;;;4.78;3.15;;;;;;;24.30;49.45;100490.72;5112868;28;20048;-64
2023/09/17 03:31:58;;;;;;;4.70;3.15;;;;;;;24.30;49.51;100488.00;5112861;28;20043;-64
2023/09/17 03:34:26;;;;;;;4.90;3.13;;;;;;;24.30;49.42;100490.72;5112602;28;20059;-64
2023/09/17 03:36:54;;;;;;;4.97;3.08;;;;;;;24.29;49.36;100494.47;5112684;28;20049;-64
2023/09/17 03:39:24;;;;;;;4.35;3.10;;;;;;;24.29;49.47;100499.94;5112786;28;20115;-65
2023/09/17 03:41:53;;;;;;;5.88;3.22;;;;;;;24.26;49.33;100484.78;5112619;28;20481;-65
2023/09/17 03:44:22;;;;;;;4.95;3.13;;;;;;;24.26;49.52;100483.94;5112616;28;20079;-64
2023/09/17 03:46:53;;;;;;;4.47;2.90;;;;;;;24.26;49.38;100484.78;5112512;28;20051;-64
2023/09/17 03:49:24;;;;;;;4.97;3.20;;;;;;;24.23;49.52;100485.16;5112448;28;20067;-66
2023/09/17 03:51:52;;;;;;;3.90;2.80;;;;;;;24.25;49.46;100490.44;5112533;28;20074;-66
2023/09/17 03:54:21;;;;;;;4.25;3.00;;;;;;;24.24;49.32;100492.31;5111879;28;20524;-65
2023/09/17 03:56:49;;;;;;;3.95;2.90;;;;;;;24.23;49.55;100490.59;5112503;28;20138;-66
2023/09/17 03:59:19;;;;;;;4.03;2.95;;;;;;;24.23;49.37;100498.78;5112476;28;20576;-65
2023/09/17 04:01:48;;;;;;;4.55;2.85;;;;;;;24.22;49.55;100488.03;5112133;28;20380;-66
2023/09/17 04:04:17;;;;;;;3.88;2.55;;;;;;;24.20;49.47;100493.66;5112084;28;20096;-65
2023/09/17 04:06:45;;;;;;;3.85;2.75;;;;;;;24.21;49.29;100494.50;5112192;28;20044;-66
2023/09/17 04:09:14;;;;;;;5.50;3.08;;;;;;;24.21;49.43;100502.69;5112549;28;20051;-66
2023/09/17 04:11:43;;;;;;;4.10;2.67;;;;;;;24.19;49.25;100499.28;5112026;28;20142;-66
2023/09/17 04:14:12;;;;;;;5.15;3.20;;;;;;;24.19;49.53;100504.75;5112069;28;20558;-65
2023/09/17 04:16:41;;;;;;;4.60;2.97;;;;;;;24.18;49.39;100509.34;5112018;28;20048;-66
2023/09/17 04:19:11;;;;;;;3.95;2.83;;;;;;;24.18;49.42;100508.50;5112242;28;20052;-66
2023/09/17 04:21:39;;;;;;;4.25;2.95;;;;;;;24.17;49.71;100513.09;5111896;28;20054;-66
2023/09/17 04:24:12;;;;;;;4.45;3.30;;;;;;;24.17;49.42;100512.25;5112194;28;20097;-66
2023/09/17 04:26:40;;;;;;;4.35;2.75;;;;;;;24.15;49.69;100514.31;5112022;28;20082;-66
2023/09/17 04:29:10;;;;;;;4.28;2.72;;;;;;;24.15;49.63;100514.31;5111972;28;20044;-65
2023/09/17 04:31:38;;;;;;;4.35;2.95;;;;;;;24.15;49.34;100508.84;5112175;28;20130;-65
2023/09/17 04:34:08;;;;;;;4.05;2.72;;;;;;;24.15;49.48;100514.31;5112065;28;20083;-64
2023/09/17 04:36:37;;;;;;;4.28;2.90;;;;;;;24.14;49.48;100518.06;5112049;28;20048;-64
2023/09/17 04:39:09;;;;;;;4.20;2.88;;;;;;;24.13;49.55;100522.66;5112065;28;20054;-65
2023/09/17 04:41:38;;;;;;;4.23;2.77;;;;;;;24.12;49.44;100529.09;5111821;28;20504;-64
2023/09/17 04:44:10;;;;;;;4.57;3.10;;;;;;;24.12;49.50;100533.69;5111702;28;20510;-66
2023/09/17 04:46:40;;;;;;;4.87;2.90;;;;;;;24.10;49.17;100533.88;5111710;28;20492;-64
2023/09/17 04:49:10;;;;;;;4.10;2.75;;;;;;;24.10;49.44;100533.88;5112028;28;20051;-65
2023/09/17 04:51:38;;;;;;;3.97;3.05;;;;;;;24.09;49.45;100536.78;5111800;28;20048;-66
2023/09/17 04:54:07;;;;;;;4.38;2.80;;;;;;;24.10;49.35;100538.47;5112216;28;20051;-65
2023/09/17 04:56:37;;;;;;;3.75;2.63;;;;;;;24.09;49.42;100539.50;5111559;28;20125;-66
2023/09/17 04:59:05;;;;;;;4.43;3.03;;;;;;;24.08;49.40;100543.25;5111963;28;20051;-65
2023/09/17 05:01:34;;;;;;;4.30;2.78;;;;;;;24.08;49.43;100545.97;5111494;28;20117;-64
2023/09/17 05:04:03;;;;;;;5.10;3.15;;;;;;;24.07;49.46;100541.56;5111746;28;20044;-66
2023/09/17 05:06:32;;;;;;;4.10;2.95;;;;;;;24.07;49.36;100544.28;5111972;28;20044;-66
2023/09/17 05:09:01;;;;;;;4.82;3.25;;;;;;;24.05;49.28;100540.88;5115455;28;20236;-65
2023/09/17 05:11:31;;;;;;;4.45;2.92;;;;;;;24.04;49.31;100540.03;5115511;28;20108;-65
2023/09/17 05:14:01;;;;;;;4.43;2.88;;;;;;;24.06;49.33;100545.31;5115433;28;20054;-66
2023/09/17 05:16:29;;;;;;;4.10;3.03;;;;;;;24.05;49.61;100546.34;5115348;28;20500;-65
2023/09/17 05:18:57;;;;;;;4.60;2.60;;;;;;;24.03;49.38;100551.06;5115411;28;20043;-66
2023/09/17 05:21:26;;;;;;;4.80;3.10;;;;;;;24.03;49.47;100548.34;5097022;28;20105;-65
2023/09/17 05:23:55;;;;;;;4.93;2.90;;;;;;;24.04;49.45;100550.09;5115172;28;20070;-66
2023/09/17 05:26:25;;;;;;;3.72;2.80;;;;;;;24.04;49.53;100555.53;5115297;28;20073;-65
2023/09/17 05:28:53;;;;;;;4.28;2.88;;;;;;;24.04;49.57;100552.81;5115264;28;20057;-66
2023/09/17 05:31:22;;;;;;;4.50;2.80;;;;;;;24.02;49.50;100554.84;5115194;28;20056;-65
2023/09/17 05:33:50;;;;;;;4.70;3.08;;;;;;;24.02;49.60;100552.09;5114951;28;20051;-65
2023/09/17 05:36:19;;;;;;;5.75;2.78;;;;;;;24.01;49.55;100562.16;5114739;28;20127;-65
2023/09/17 05:38:47;;;;;;;3.85;2.60;;;;;;;24.02;49.56;100563.00;5115194;28;20040;-66
2023/09/17 05:41:17;;;;;;;4.22;2.80;;;;;;;24.01;49.59;100561.31;5114924;28;20040;-66
2023/09/17 05:43:46;;;;;;;4.57;2.88;;;;;;;23.99;49.68;100565.06;5114885;28;20122;-66
2023/09/17 05:46:14;;;;;;;4.93;2.90;;;;;;;24.01;49.59;100569.47;5114773;28;20043;-66
2023/09/17 05:48:43;;;;;;;4.60;2.95;;;;;;;24.00;49.63;100571.34;5114677;28;20058;-66
2023/09/17 05:51:11;;;;;;;4.72;3.00;;;;;;;23.99;49.62;100575.97;5114704;28;20048;-66
2023/09/17 05:53:41;;;;;;;4.05;3.00;;;;;;;23.99;49.72;100577.84;5114779;28;20044;-66
2023/09/17 05:56:11;;;;;;;4.57;2.88;;;;;;;23.99;49.48;100581.41;5114562;28;20484;-66
2023/09/17 05:58:41;;;;;;;3.35;2.40;;;;;;;23.99;49.67;100586.84;5114647;28;20047;-65
2023/09/17 06:01:09;;;;;;;3.95;2.90;;;;;;;23.98;49.81;100574.25;5096561;28;20054;-65
2023/09/17 06:03:38;;;;;;;3.97;2.58;;;;;;;23.96;49.68;100579.03;5114648;28;20059;-65
2023/09/17 06:06:10;;;;;;;3.95;2.95;;;;;;;23.99;49.67;100578.69;5114435;28;20047;-64
2023/09/17 06:08:38;;;;;;;4.25;2.90;;;;;;;23.99;49.71;100577.84;5114453;28;20044;-64
2023/09/17 06:11:07;;;;;;;3.95;2.70;;;;;;;23.97;49.98;100572.56;5114199;28;20126;-65
2023/09/17 06:13:35;;;;;;;4.22;2.70;;;;;;;23.99;49.85;100575.09;5114122;28;20485;-63
2023/09/17 06:16:05;;;;;;;4.68;2.72;;;;;;;23.98;49.59;100574.25;5114116;28;20127;-64
2023/09/17 06:18:34;;;;;;;3.97;2.90;;;;;;;23.98;49.63;100579.72;5114035;28;20050;-64
2023/09/17 06:21:03;;;;;;;4.40;2.58;;;;;;;23.98;49.94;100585.16;5114197;28;20044;-65
2023/09/17 06:23:31;;;;;;;4.30;3.08;;;;;;;23.97;49.88;100583.47;5113959;28;20412;-65
2023/09/17 06:26:00;;;;;;;4.15;2.88;;;;;;;23.97;50.03;100578.00;5114118;28;20124;-65
2023/09/17 06:28:28;;;;;;;5.13;2.95;;;;;;;23.97;49.84;100580.72;5113820;28;20052;-65
2023/09/17 06:30:57;;;;;;;3.97;2.50;;;;;;;23.98;49.88;100585.16;5114216;28;20052;-65
2023/09/17 06:33:27;;;;;;;4.32;2.70;;;;;;;23.97;49.95;100582.59;5114165;28;20151;-65
2023/09/17 06:35:56;;;;;;;3.83;2.67;;;;;;;23.98;49.80;100587.88;5113975;28;20043;-65
2023/09/17 06:38:24;;;;;;;4.05;2.80;;;;;;;23.96;49.77;100580.91;5113809;28;20047;-65
2023/09/17 06:40:53;;;;;;;3.65;2.70;;;;;;;23.98;49.82;100590.59;5113779;28;20039;-65
2023/09/17 06:43:22;;;;;;;4.18;2.65;;;;;;;23.99;49.92;100586.84;5113463;28;20461;-65
2023/09/17 06:45:51;;;;;;;3.88;2.70;;;;;;;23.98;49.94;100585.16;5113692;28;20040;-66
2023/09/17 06:48:19;;;;;;;3.72;2.63;;;;;;;23.99;50.12;100578.69;5113789;28;20131;-66
2023/09/17 06:50:49;;;;;;;4.05;2.63;;;;;;;23.98;49.88;100579.72;5113561;28;20050;-66
2023/09/17 06:53:17;;;;;;;3.80;2.80;;;;;;;23.99;50.12;100586.84;5113572;28;20047;-66
2023/09/17 06:55:45;;;;;;;4.05;2.88;;;;;;;24.00;49.88;100593.16;5113258;28;20554;-66
2023/09/17 06:58:16;;;;;;;4.13;2.90;;;;;;;24.01;50.05;100594.84;5113591;28;20044;-66
2023/09/17 07:00:44;;;;;;;3.83;2.65;;;;;;;24.00;50.12;100590.44;5095411;28;20047;-66
2023/09/17 07:03:13;;;;;;;3.53;2.50;;;;;;;24.01;49.85;100591.28;5113171;28;20146;-66
2023/09/17 07:05:42;;;;;;;3.80;2.67;;;;;;;24.02;50.19;100592.97;5113219;28;20051;-66
2023/09/17 07:08:11;;;;;;;5.00;2.78;;;;;;;24.02;49.96;100595.69;5113127;28;20047;-66
2023/09/17 07:10:40;;;;;;;3.80;2.55;;;;;;;24.03;50.14;100597.41;5112980;28;20051;-66
2023/09/17 07:13:08;;;;;;;3.60;2.50;;;;;;;24.04;50.05;100599.13;5113176;28;20043;-64
2023/09/17 07:15:37;;;;;;;4.85;2.88;;;;;;;24.03;50.21;100600.13;5113103;28;20051;-64
2023/09/17 07:18:07;;;;;;;3.72;2.30;;;;;;;24.03;50.11;100602.84;5113026;28;20044;-64
2023/09/17 07:20:36;;;;;;;3.95;2.50;;;;;;;24.02;50.12;100595.69;5112821;28;20051;-64
2023/09/17 07:23:05;;;;;;;3.65;2.60;;;;;;;24.02;50.14;100602.00;5112554;28;20491;-65
2023/09/17 07:25:34;;;;;;;3.85;2.90;;;;;;;24.04;50.05;100602.72;5112983;28;20040;-64
2023/09/17 07:28:07;;;;;;;3.63;2.60;;;;;;;24.03;50.00;100602.84;5112888;28;20394;-64
2023/09/17 07:30:36;;;;;;;3.95;2.70;;;;;;;24.04;50.12;100599.97;5111950;28;20122;-64
2023/09/17 07:33:06;;;;;;;4.28;2.80;;;;;;;24.03;50.20;100602.84;5112668;28;20266;-65
2023/09/17 07:35:35;;;;;;;4.57;2.42;;;;;;;24.05;50.53;100603.56;5112616;28;20092;-65
2023/09/17 07:38:03;;;;;;;3.70;2.53;;;;;;;24.06;50.19;100603.38;5112481;28;20040;-66
2023/09/17 07:40:32;;;;;;;4.13;2.55;;;;;;;24.07;50.29;100606.94;5112633;28;20097;-65
2023/09/17 07:43:03;;;;;;;4.95;2.88;;;;;;;24.07;50.18;100599.63;5112618;28;20458;-64
2023/09/17 07:45:33;;;;;;;4.00;2.50;;;;;;;24.08;50.08;100601.31;5112507;28;20054;-65
2023/09/17 07:48:03;;;;;;;3.78;2.83;;;;;;;24.08;50.20;100595.88;5112387;28;20043;-65
2023/09/17 07:50:31;;;;;;;4.40;2.85;;;;;;;24.10;50.34;100598.44;5112704;28;20469;-64
2023/09/17 07:53:00;;;;;;;4.80;2.80;;;;;;;24.10;50.14;100595.69;5112533;28;20044;-64
2023/09/17 07:55:29;;;;;;;4.38;2.97;;;;;;;24.11;50.36;100594.69;5112447;28;20043;-66
2023/09/17 07:57:58;;;;;;;4.28;3.03;;;;;;;24.12;50.20;100601.81;5112403;28;20039;-64
2023/09/17 08:00:28;;;;;;;4.45;3.08;;;;;;;24.12;50.38;100602.69;5094522;28;20048;-65
2023/09/17 08:03:02;;;;;;;4.38;2.95;;;;;;;24.12;50.48;100604.56;5112213;28;20047;-65
2023/09/17 08:05:32;;;;;;;3.70;2.63;;;;;;;24.13;50.42;100592.66;5112393;28;20050;-64
2023/09/17 08:08:00;;;;;;;4.97;3.80;;;;;;;24.13;50.41;100601.69;5112037;28;20055;-64
2023/09/17 08:10:29;;;;;;;4.55;3.28;;;;;;;24.12;50.59;100602.69;5112058;28;20201;-64
2023/09/17 08:12:57;;;;;;;4.75;3.20;;;;;;;24.13;50.38;100604.41;5112102;28;20043;-64
2023/09/17 08:15:27;;;;;;;4.20;2.90;;;;;;;24.15;50.17;100606.94;5112022;28;20047;-65
2023/09/17 08:17:57;;;;;;;3.40;2.40;;;;;;;24.15;50.30;100610.53;5112262;28;20052;-64
2023/09/17 08:20:28;;;;;;;4.60;3.40;;;;;;;24.16;50.57;100612.22;5112176;28;20043;-64
2023/09/17 08:22:58;;;;;;;4.32;2.95;;;;;;;24.18;50.67;100606.59;5111960;28;20056;-65
2023/09/17 08:25:27;;;;;;;4.53;2.90;;;;;;;24.18;50.56;100609.31;5111882;28;20135;-64
2023/09/17 08:27:56;;;;;;;4.80;3.33;;;;;;;24.20;50.51;100616.28;5111935;28;20044;-65
2023/09/17 08:30:24;;;;;;;4.90;3.47;;;;;;;24.20;50.42;100612.72;5112019;28;20043;-64
2023/09/17 08:32:54;;;;;;;4.57;3.25;;;;;;;24.21;50.75;100611.69;5112131;28;20075;-65
2023/09/17 08:35:23;;;;;;;4.30;3.13;;;;;;;24.22;50.61;100611.56;5111863;28;20084;-65
2023/09/17 08:37:52;;;;;;;4.57;3.50;;;;;;;24.24;50.53;100614.09;5111859;28;20130;-65
2023/09/17 08:40:27;;;;;;;4.85;3.65;;;;;;;24.25;50.74;100615.81;5111803;28;20039;-65
2023/09/17 08:43:00;;;;;;;4.25;2.90;;;;;;;24.25;50.72;100613.06;5116076;28;20134;-64
2023/09/17 08:45:31;;;;;;;5.32;3.22;;;;;;;24.27;50.63;100605.56;5116052;28;20071;-65
2023/09/17 08:47:59;;;;;;;4.10;3.00;;;;;;;24.28;50.65;100607.28;5116100;28;20044;-65
2023/09/17 08:50:30;;;;;;;5.63;3.08;;;;;;;24.27;50.45;100611.03;5115851;28;20075;-65
2023/09/17 08:53:03;;;;;;;4.82;3.45;;;;;;;24.28;50.70;100608.13;5115725;28;20074;-64
2023/09/17 08:55:32;;;;;;;3.83;2.80;;;;;;;24.31;50.72;100604.22;5116019;28;20051;-64
2023/09/17 08:58:11;;;;;;;4.13;3.08;;;;;;;24.33;50.88;100606.81;5115884;28;20039;-66
2023/09/17 09:00:45;;;;;;;5.78;3.50;;;;;;;24.34;50.70;100603.91;5115679;28;20043;-65
2023/09/17 09:03:15;;;;;;;4.68;3.30;;;;;;;24.36;50.61;100603.72;5115426;28;20054;-64
2023/09/17 09:05:50;;;;;;;7.03;4.00;;;;;;;24.37;51.03;100599.97;5115645;28;20082;-65
2023/09/17 09:08:19;;;;;;;5.40;3.72;;;;;;;24.38;51.07;100602.50;5115524;28;20108;-65
2023/09/17 09:10:48;;;;;;;4.72;3.58;;;;;;;24.39;51.08;100593.31;5115334;28;20087;-65
2023/09/17 09:13:16;;;;;;;4.28;3.10;;;;;;;24.41;50.67;100601.31;5115242;28;20496;-65
2023/09/17 09:15:45;;;;;;;4.85;3.35;;;;;;;24.42;50.70;100597.59;5115317;28;20072;-64
2023/09/17 09:18:13;;;;;;;6.47;3.25;;;;;;;24.43;50.80;100600.13;5115407;28;20055;-64
2023/09/17 09:20:43;;;;;;;4.60;3.50;;;;;;;24.45;50.88;100597.22;5115303;28;20052;-65
2023/09/17 09:23:12;;;;;;;4.22;3.33;;;;;;;24.47;50.78;100596.03;5115089;28;20040;-65
2023/09/17 09:25:41;;;;;;;4.75;3.25;;;;;;;24.48;50.80;100592.25;5115074;28;20040;-65
2023/09/17 09:28:09;;;;;;;5.80;3.63;;;;;;;24.50;50.94;100594.81;5115050;28;20422;-65
2023/09/17 09:30:38;;;;;;;5.32;3.85;;;;;;;24.52;50.98;100590.91;5115096;28;20200;-65
2023/09/17 09:33:07;;;;;;;4.72;3.65;;;;;;;24.47;50.81;100585.13;5115014;28;20404;-66
2023/09/17 09:35:36;;;;;;;4.63;3.42;;;;;;;24.55;50.68;100590.56;5115100;28;20726;-65
2023/09/17 09:38:04;;;;;;;4.90;3.53;;;;;;;24.58;50.86;100591.22;5115117;28;20043;-65
2023/09/17 09:40:36;;;;;;;5.03;3.47;;;;;;;24.60;50.67;100584.56;5114897;28;20044;-66
2023/09/17 09:43:17;;;;;;;4.30;3.28;;;;;;;24.62;50.86;100578.97;5114893;28;20474;-66
2023/09/17 09:45:47;;;;;;;5.75;4.25;;;;;;;24.63;50.66;100578.78;5115121;28;20383;-65
2023/09/17 09:48:17;;;;;;;5.18;3.70;;;;;;;24.67;50.66;100584.72;5114969;28;20450;-66
2023/09/17 09:50:46;;;;;;;4.70;3.55;;;;;;;24.69;50.92;100577.19;5114687;28;20044;-65
2023/09/17 09:53:15;;;;;;;5.10;3.72;;;;;;;24.72;51.11;100587.78;5113749;28;20047;-65
2023/09/17 09:55:45;;;;;;;5.22;3.80;;;;;;;24.72;51.10;100585.06;5114536;28;20389;-64
2023/09/17 09:58:15;;;;;;;5.88;3.63;;;;;;;24.76;50.88;100579.06;5114619;28;20050;-66
2023/09/17 10:00:45;;;;;;;4.93;3.70;;;;;;;24.78;50.86;100581.59;5114519;28;20220;-66
2023/09/17 10:03:14;;;;;;;5.10;3.80;;;;;;;24.81;51.04;100575.81;5114400;28;20043;-65
2023/09/17 10:05:42;;;;;;;4.75;3.65;;;;;;;24.82;50.85;100581.09;5114426;28;20047;-66
2023/09/17 10:08:12;;;;;;;5.03;4.15;;;;;;;24.86;50.84;100581.56;5114238;28;20047;-66
2023/09/17 10:10:42;;;;;;;5.03;3.53;;;;;;;24.91;50.74;100581.06;5114403;28;20094;-65
2023/09/17 10:13:14;;;;;;;5.18;3.47;;;;;;;24.93;51.20;100579.84;5114354;28;20401;-65
2023/09/17 10:15:46;;;;;;;4.20;3.35;;;;;;;24.96;51.00;100574.03;5114330;28;20132;-65
2023/09/17 10:18:14;;;;;;;5.03;3.83;;;;;;;24.99;50.89;100575.53;5114187;28;20047;-65
2023/09/17 10:20:45;;;;;;;6.28;4.18;;;;;;;25.02;50.98;100567.91;5114036;28;20055;-66
2023/09/17 10:23:15;;;;;;;5.72;3.80;;;;;;;25.05;51.01;100564.81;5114159;28;20454;-65
2023/09/17 10:25:46;;;;;;;5.35;4.07;;;;;;;25.10;50.99;100558.81;5114151;28;20099;-66
2023/09/17 10:28:20;;;;;;;5.53;4.30;;;;;;;25.13;50.99;100558.47;5113967;28;20407;-64
2023/09/17 10:30:51;;;;;;;6.15;4.72;;;;;;;25.16;51.10;100563.56;5113760;28;20048;-67
2023/09/17 10:33:21;;;;;;;6.68;4.47;;;;;;;25.21;51.24;100560.31;5114273;28;20054;-66
2023/09/17 10:35:51;;;;;;;5.53;4.30;;;;;;;25.24;51.16;100555.31;5114003;28;20423;-66
2023/09/17 10:38:22;;;;;;;5.38;4.18;;;;;;;25.27;51.31;100548.63;5113794;28;20047;-65
2023/09/17 10:40:51;;;;;;;6.20;4.40;;;;;;;25.33;51.00;100553.38;5113858;28;20048;-65
2023/09/17 10:43:23;;;;;;;5.13;4.05;;;;;;;25.37;50.97;100550.09;5113548;28;20050;-65
2023/09/17 10:45:55;;;;;;;5.50;4.10;;;;;;;25.40;50.82;100548.91;5113550;28;20079;-66
2023/09/17 10:48:27;;;;;;;5.00;4.00;;;;;;;25.45;50.78;100540.16;5113693;28;20046;-66
2023/09/17 10:50:55;;;;;;;5.82;4.55;;;;;;;25.46;50.91;100542.72;5113616;28;20269;-66
2023/09/17 10:53:25;;;;;;;5.05;4.00;;;;;;;25.53;50.96;100540.09;5113527;28;20047;-67
2023/09/17 10:56:03;;;;;;;5.22;4.00;;;;;;;25.57;50.92;100545.00;5112826;28;20130;-66
2023/09/17 10:58:43;;;;;;;5.57;4.00;;;;;;;25.62;50.58;100544.47;5113412;28;20486;-66
2023/09/17 11:01:15;;;;;;;5.32;3.97;;;;;;;25.64;50.95;100540.53;5113526;28;20052;-66
2023/09/17 11:03:50;;;;;;;6.00;4.60;;;;;;;25.65;50.83;100539.47;5112576;28;20139;-66
2023/09/17 11:06:24;;;;;;;7.00;4.32;;;;;;;25.63;51.05;100533.38;5112702;28;20044;-66
2023/09/17 11:08:55;;;;;;;6.03;4.60;;;;;;;25.66;51.05;100532.13;5113088;28;20404;-66
2023/09/17 11:11:25;;;;;;;6.07;4.68;;;;;;;25.67;50.77;100529.25;5113110;28;20532;-67
2023/09/17 11:13:55;;;;;;;5.40;4.20;;;;;;;25.72;50.54;100531.44;5112956;28;20044;-67
2023/09/17 11:16:26;;;;;;;5.53;4.53;;;;;;;25.77;50.83;100528.16;5112992;28;20048;-66
2023/09/17 11:19:05;;;;;;;5.13;4.13;;;;;;;25.77;51.08;100517.22;5112931;28;20043;-66
2023/09/17 11:21:37;;;;;;;6.32;4.50;;;;;;;25.82;50.62;100525.72;5112742;28;20059;-66
2023/09/17 11:24:10;;;;;;;5.73;4.57;;;;;;;25.85;50.77;100517.16;5112734;28;20557;-66
2023/09/17 11:26:40;;;;;;;5.90;4.55;;;;;;;25.92;50.46;100515.38;5112970;28;20047;-65
2023/09/17 11:29:10;;;;;;;5.78;4.15;;;;;;;25.96;50.67;100516.69;5112839;28;20086;-65
2023/09/17 11:32:01;;;;;;;5.72;4.13;;;;;;;26.04;50.52;100519.34;5112668;28;20039;-66
2023/09/17 11:34:29;;;;;;;6.53;4.50;;;;;;;26.08;50.22;100517.97;5112928;28;20404;-65
2023/09/17 11:37:01;;;;;;;5.60;4.40;;;;;;;26.11;50.57;100528.53;5112871;28;20058;-66